createdAt,value
2022-11-19T00:02:10.209Z,21.10
2022-11-19T00:04:39.826Z,22.90
2022-11-19T00:07:08.285Z,22.83
2022-11-19T00:09:36.438Z,22.33
2022-11-19T00:12:22.490Z,23.48
2022-11-19T00:14:51.055Z,21.85
2022-11-19T00:17:19.197Z,21.98
2022-11-19T00:19:48.686Z,22.95
2022-11-19T00:22:16.984Z,23.50
2022-11-19T00:24:45.148Z,23.98
2022-11-19T00:27:13.293Z,22.20
2022-11-19T00:29:41.570Z,23.80
2022-11-19T00:32:09.738Z,22.50
2022-11-19T00:34:37.823Z,21.58
2022-11-19T00:37:07.704Z,22.75
2022-11-19T00:39:35.772Z,21.23
2022-11-19T00:42:03.866Z,22.88
2022-11-19T00:44:36.981Z,20.55
2022-11-19T00:49:34.536Z,18.80
2022-11-19T00:52:02.717Z,15.60
2022-11-19T00:54:32.414Z,19.58
2022-11-19T00:57:01.050Z,20.27
2022-11-19T00:59:29.462Z,20.75
2022-11-19T01:01:57.603Z,18.50
2022-11-19T01:04:26.129Z,19.05
2022-11-19T01:06:54.333Z,18.70
2022-11-19T01:09:22.781Z,17.08
2022-11-19T01:11:52.600Z,17.95
2022-11-19T01:14:20.685Z,18.33
2022-11-19T01:16:48.853Z,16.40
2022-11-19T01:19:17.553Z,16.77
2022-11-19T01:21:46.272Z,17.23
2022-11-19T01:24:14.372Z,16.60
2022-11-19T01:26:45.876Z,16.75
2022-11-19T01:29:15.839Z,18.90
2022-11-19T01:31:44.295Z,18.65
2022-11-19T01:34:13.940Z,20.65
2022-11-19T01:36:42.005Z,18.65
2022-11-19T01:39:10.404Z,19.15
2022-11-19T01:41:38.517Z,19.65
2022-11-19T01:44:08.772Z,21.58
2022-11-19T01:46:40.102Z,17.00
2022-11-19T01:49:11.558Z,18.13
2022-11-19T01:51:45.421Z,15.50
2022-11-19T01:54:21.241Z,17.98
2022-11-19T01:56:49.946Z,16.55
2022-11-19T01:59:20.034Z,16.80
2022-11-19T02:01:50.370Z,15.10
2022-11-19T02:04:20.138Z,17.15
2022-11-19T02:06:49.299Z,17.92
2022-11-19T02:09:18.185Z,15.18
2022-11-19T02:12:13.883Z,15.55
2022-11-19T02:15:07.619Z,13.20
2022-11-19T02:17:52.449Z,15.55
2022-11-19T02:20:46.481Z,16.55
2022-11-19T02:23:51.533Z,15.20
2022-11-19T02:27:03.283Z,14.25
2022-11-19T02:29:58.862Z,14.68
2022-11-19T02:32:34.401Z,16.65
2022-11-19T02:35:13.944Z,15.63
2022-11-19T02:37:49.076Z,16.30
2022-11-19T02:40:24.382Z,13.65
2022-11-19T02:43:00.827Z,15.63
2022-11-19T02:45:35.649Z,13.57
2022-11-19T02:48:09.356Z,12.35
2022-11-19T02:53:07.478Z,13.13
2022-11-19T02:55:37.916Z,13.52
2022-11-19T02:58:10.484Z,15.23
2022-11-19T03:01:03.593Z,13.82
2022-11-19T03:03:50.835Z,10.90
2022-11-19T03:06:21.730Z,9.30
2022-11-19T03:08:50.263Z,11.77
2022-11-19T03:11:22.959Z,12.40
2022-11-19T03:14:13.486Z,9.90
2022-11-19T03:16:50.745Z,11.43
2022-11-19T03:19:28.652Z,9.23
2022-11-19T03:22:01.148Z,12.07
2022-11-19T03:24:33.726Z,12.25
2022-11-19T03:27:07.040Z,9.98
2022-11-19T03:29:39.687Z,10.35
2022-11-19T03:32:13.965Z,10.93
2022-11-19T03:34:44.278Z,9.95
2022-11-19T03:37:14.299Z,10.27
2022-11-19T03:39:44.730Z,11.45
2022-11-19T03:42:15.986Z,11.68
2022-11-19T03:44:47.265Z,10.73
2022-11-19T03:47:21.119Z,12.50
2022-11-19T03:49:52.280Z,13.43
2022-11-19T03:52:22.066Z,12.82
2022-11-19T03:54:50.462Z,13.20
2022-11-19T03:57:21.163Z,15.13
2022-11-19T03:59:49.304Z,11.65
2022-11-19T04:02:19.803Z,13.10
2022-11-19T04:04:47.841Z,13.65
2022-11-19T04:07:17.765Z,14.80
2022-11-19T04:09:47.521Z,12.38
2022-11-19T04:12:18.710Z,13.75
2022-11-19T04:14:47.291Z,15.27
2022-11-19T04:17:15.848Z,13.98
2022-11-19T04:19:45.660Z,14.82
2022-11-19T04:22:14.006Z,14.73
2022-11-19T04:24:42.483Z,13.98
2022-11-19T04:27:10.695Z,12.98
2022-11-19T04:29:38.837Z,16.52
2022-11-19T04:32:07.514Z,13.48
2022-11-19T04:34:35.583Z,13.32
2022-11-19T04:37:05.290Z,13.98
2022-11-19T04:39:33.759Z,15.57
2022-11-19T04:42:01.943Z,17.05
2022-11-19T04:44:30.737Z,12.88
2022-11-19T04:47:00.048Z,18.60
2022-11-19T04:49:28.296Z,15.40
2022-11-19T04:51:56.695Z,18.35
2022-11-19T04:54:26.498Z,18.80
2022-11-19T04:56:54.631Z,16.23
2022-11-19T04:59:23.071Z,19.38
2022-11-19T05:01:51.434Z,16.48
2022-11-19T05:04:19.598Z,13.30
2022-11-19T05:06:47.930Z,19.80
2022-11-19T05:09:16.467Z,21.17
2022-11-19T05:11:46.131Z,16.90
2022-11-19T05:14:14.622Z,18.40
2022-11-19T05:16:43.064Z,16.42
2022-11-19T05:19:11.401Z,19.63
2022-11-19T05:21:39.796Z,17.27
2022-11-19T05:24:08.853Z,19.83
2022-11-19T05:26:37.083Z,15.27
2022-11-19T05:29:06.617Z,14.75
2022-11-19T05:31:34.818Z,19.58
2022-11-19T05:34:02.917Z,14.63
2022-11-19T05:36:31.421Z,19.23
2022-11-19T05:38:59.741Z,14.52
2022-11-19T05:41:28.166Z,14.85
2022-11-19T05:43:56.256Z,18.02
2022-11-19T05:46:25.903Z,20.48
2022-11-19T05:48:54.363Z,18.45
2022-11-19T05:51:22.474Z,17.75
2022-11-19T05:53:50.936Z,23.40
2022-11-19T05:56:19.554Z,18.70
2022-11-19T05:58:47.705Z,22.65
2022-11-19T06:01:16.068Z,24.83
2022-11-19T06:03:45.884Z,22.73
2022-11-19T06:06:13.969Z,22.00
2022-11-19T06:08:42.332Z,18.27
2022-11-19T06:11:30.974Z,24.98
2022-11-19T06:13:59.341Z,20.85
2022-11-19T06:16:27.850Z,20.80
2022-11-19T06:18:57.317Z,22.00
2022-11-19T06:21:25.573Z,17.70
2022-11-19T06:23:54.312Z,18.00
2022-11-19T06:26:26.483Z,20.13
2022-11-19T06:28:55.489Z,21.05
2022-11-19T06:31:24.108Z,18.83
2022-11-19T06:33:53.663Z,18.73
2022-11-19T06:36:26.184Z,14.73
2022-11-19T06:38:56.008Z,15.63
2022-11-19T06:41:24.575Z,17.60
2022-11-19T06:43:52.718Z,17.23
2022-11-19T06:46:21.677Z,14.23
2022-11-19T06:48:49.865Z,16.50
2022-11-19T06:51:17.975Z,14.75
2022-11-19T06:53:47.601Z,17.02
2022-11-19T06:56:15.971Z,13.55
2022-11-19T06:58:44.145Z,14.30
2022-11-19T07:01:12.505Z,14.35
2022-11-19T07:03:40.889Z,12.68
2022-11-19T07:06:09.434Z,15.50
2022-11-19T07:08:39.452Z,19.90
2022-11-19T07:11:22.893Z,16.90
2022-11-19T07:14:00.870Z,12.90
2022-11-19T07:16:30.708Z,13.07
2022-11-19T07:19:00.032Z,14.48
2022-11-19T07:21:29.283Z,15.25
2022-11-19T07:23:57.633Z,12.90
2022-11-19T07:26:27.185Z,12.98
2022-11-19T07:28:57.602Z,14.68
2022-11-19T07:31:29.317Z,11.55
2022-11-19T07:33:57.507Z,14.60
2022-11-19T07:36:25.651Z,13.35
2022-11-19T07:38:53.952Z,14.20
2022-11-19T07:41:39.812Z,14.75
2022-11-19T07:44:09.677Z,13.63
2022-11-19T07:46:37.860Z,16.35
2022-11-19T07:49:06.407Z,14.50
2022-11-19T07:51:34.813Z,15.15
2022-11-19T07:54:02.997Z,16.20
2022-11-19T07:56:31.407Z,18.23
2022-11-19T07:59:01.426Z,16.33
2022-11-19T08:01:31.029Z,14.93
2022-11-19T08:03:59.213Z,18.85
2022-11-19T08:06:29.843Z,20.25
2022-11-19T08:08:58.185Z,19.15
2022-11-19T08:11:26.865Z,19.90
2022-11-19T08:13:55.253Z,17.58
2022-11-19T08:16:41.475Z,20.42
2022-11-19T08:19:12.327Z,19.85
2022-11-19T08:21:43.156Z,19.27
2022-11-19T08:24:12.799Z,20.35
2022-11-19T08:26:41.892Z,19.00
2022-11-19T08:29:15.817Z,14.75
2022-11-19T08:31:46.171Z,18.15
2022-11-19T08:34:16.042Z,17.27
2022-11-19T08:36:44.300Z,17.58
2022-11-19T08:39:12.683Z,16.65
2022-11-19T08:41:58.328Z,19.20
2022-11-19T08:44:27.263Z,17.10
2022-11-19T08:46:55.383Z,18.88
2022-11-19T08:49:25.035Z,17.92
2022-11-19T08:51:53.499Z,18.92
2022-11-19T08:54:22.149Z,23.83
2022-11-19T08:56:50.597Z,20.67
2022-11-19T08:59:21.860Z,24.35
2022-11-19T09:01:50.489Z,23.52
2022-11-19T09:04:19.089Z,26.40
2022-11-19T09:06:48.918Z,27.13
2022-11-19T09:09:17.075Z,22.73
2022-11-19T09:11:45.367Z,22.35
2022-11-19T09:14:13.576Z,25.55
2022-11-19T09:16:42.326Z,23.33
2022-11-19T09:19:10.544Z,19.70
2022-11-19T09:21:38.796Z,22.65
2022-11-19T09:24:08.726Z,23.23
2022-11-19T09:26:37.337Z,21.60
2022-11-19T09:29:05.547Z,23.80
2022-11-19T09:31:33.788Z,22.23
2022-11-19T09:34:02.338Z,22.77
2022-11-19T09:36:30.531Z,25.08
2022-11-19T09:38:59.403Z,23.67
2022-11-19T09:41:39.337Z,20.58
2022-11-19T09:44:19.816Z,21.90
2022-11-19T09:46:57.498Z,17.80
2022-11-19T09:49:32.112Z,14.50
2022-11-19T09:52:06.507Z,16.25
2022-11-19T09:54:35.469Z,13.90
2022-11-19T09:57:14.901Z,13.80
2022-11-19T09:59:43.332Z,13.48
2022-11-19T10:02:17.879Z,14.00
2022-11-19T10:04:47.059Z,13.38
2022-11-19T10:07:25.809Z,13.65
2022-11-19T10:10:06.478Z,13.82
2022-11-19T10:12:53.232Z,13.18
2022-11-19T10:18:05.689Z,13.98
2022-11-19T10:20:55.343Z,15.85
2022-11-19T10:23:32.616Z,15.90
2022-11-19T10:26:05.343Z,16.35
2022-11-19T10:28:38.732Z,16.90
2022-11-19T10:31:10.288Z,16.30
2022-11-19T10:33:44.831Z,17.77
2022-11-19T10:36:20.927Z,18.05
2022-11-19T10:38:56.331Z,17.30
2022-11-19T10:41:33.114Z,15.90
2022-11-19T10:44:33.925Z,17.45
2022-11-19T10:47:02.799Z,18.05
2022-11-19T10:49:30.900Z,15.95
2022-11-19T10:51:59.294Z,13.23
2022-11-19T10:54:29.883Z,14.70
2022-11-19T10:56:59.911Z,13.18
2022-11-19T10:59:33.180Z,12.70
2022-11-19T11:02:15.144Z,13.32
2022-11-19T11:05:04.285Z,11.43
2022-11-19T11:07:53.702Z,9.98
2022-11-19T11:10:42.867Z,12.05
2022-11-19T11:13:40.873Z,11.27
2022-11-19T11:16:13.537Z,12.45
2022-11-19T11:18:42.613Z,11.70
2022-11-19T11:21:25.248Z,12.95
2022-11-19T11:23:55.613Z,13.23
2022-11-19T11:26:24.953Z,14.00
2022-11-19T11:28:59.338Z,14.85
2022-11-19T11:31:35.434Z,15.23
2022-11-19T11:34:05.123Z,17.33
2022-11-19T11:36:35.780Z,17.13
2022-11-19T11:39:05.885Z,17.20
2022-11-19T11:44:28.790Z,18.98
2022-11-19T11:47:01.848Z,18.20
2022-11-19T11:49:35.019Z,20.08
2022-11-19T11:52:07.402Z,19.70
2022-11-19T11:54:36.774Z,22.25
2022-11-19T11:57:16.258Z,22.58
2022-11-19T11:59:44.942Z,25.33
2022-11-19T12:02:27.127Z,24.83
2022-11-19T12:04:56.774Z,23.75
2022-11-19T12:07:51.798Z,22.95
2022-11-19T12:10:26.905Z,21.95
2022-11-19T12:13:08.839Z,19.60
2022-11-19T12:15:49.585Z,19.70
2022-11-19T12:18:29.476Z,20.20
2022-11-19T12:21:10.248Z,20.08
2022-11-19T12:23:53.928Z,18.55
2022-11-19T12:26:31.815Z,15.70
2022-11-19T12:29:13.593Z,14.65
2022-11-19T12:32:00.645Z,14.82
2022-11-19T12:34:43.134Z,15.00
2022-11-19T12:37:31.261Z,15.57
2022-11-19T12:40:10.598Z,16.13
2022-11-19T12:42:52.229Z,15.60
2022-11-19T12:45:30.623Z,16.13
2022-11-19T12:48:21.960Z,15.23
2022-11-19T12:50:57.020Z,13.65
2022-11-19T12:53:53.174Z,14.52
2022-11-19T12:56:35.269Z,15.55
2022-11-19T12:59:12.041Z,18.13
2022-11-19T13:01:44.317Z,22.10
2022-11-19T13:04:18.606Z,20.80
2022-11-19T13:06:52.461Z,18.42
2022-11-19T13:09:32.465Z,16.83
2022-11-19T13:12:05.797Z,15.75
2022-11-19T13:14:40.767Z,16.35
2022-11-19T13:17:19.102Z,18.13
2022-11-19T13:19:52.523Z,17.63
2022-11-19T13:22:25.893Z,20.15
2022-11-19T13:24:59.438Z,17.63
2022-11-19T13:27:29.525Z,19.20
2022-11-19T13:30:02.418Z,18.35
2022-11-19T13:32:38.952Z,19.85
2022-11-19T13:35:17.856Z,20.95
2022-11-19T13:37:58.667Z,22.48
2022-11-19T13:40:32.125Z,22.80
2022-11-19T13:43:32.112Z,24.20
2022-11-19T13:46:10.063Z,24.13
2022-11-19T13:48:43.078Z,24.92
2022-11-19T13:51:21.409Z,26.58
2022-11-19T13:53:51.295Z,29.00
2022-11-19T13:56:21.708Z,32.50
2022-11-19T13:58:52.952Z,34.85
2022-11-19T14:01:48.146Z,31.73
2022-11-19T14:04:48.437Z,33.05
2022-11-19T14:07:46.453Z,31.83
2022-11-19T14:10:24.685Z,36.10
2022-11-19T14:13:08.149Z,33.60
2022-11-19T14:16:18.881Z,32.55
2022-11-19T14:19:08.439Z,33.22
2022-11-19T14:22:08.981Z,33.80
2022-11-19T14:25:21.428Z,33.20
2022-11-19T14:27:51.582Z,33.28
2022-11-19T14:30:22.379Z,33.15
2022-11-19T14:32:52.881Z,36.10
2022-11-19T14:35:48.204Z,39.55
2022-11-19T14:38:42.471Z,36.28
2022-11-19T14:44:14.275Z,36.33
2022-11-19T14:46:45.568Z,39.03
2022-11-19T14:49:27.948Z,39.08
2022-11-19T14:51:58.069Z,40.53
2022-11-19T14:54:39.002Z,38.15
2022-11-19T14:57:16.404Z,41.35
2022-11-19T14:59:51.394Z,41.38
2022-11-19T15:02:29.373Z,45.72
2022-11-19T15:05:06.764Z,39.63
2022-11-19T15:07:39.132Z,38.40
2022-11-19T15:10:48.389Z,37.30
2022-11-19T15:13:28.594Z,40.15
2022-11-19T15:16:04.236Z,37.38
2022-11-19T15:19:14.720Z,35.50
2022-11-19T15:22:08.754Z,37.05
2022-11-19T15:24:58.971Z,33.15
2022-11-19T15:27:42.984Z,33.88
2022-11-19T15:30:18.163Z,35.83
2022-11-19T15:33:18.008Z,36.08
2022-11-19T15:36:23.793Z,37.30
2022-11-19T15:38:58.810Z,37.03
2022-11-19T15:41:30.407Z,38.97
2022-11-19T15:44:02.842Z,49.97
2022-11-19T15:46:44.014Z,50.42
2022-11-19T15:49:20.842Z,50.70
2022-11-19T15:52:05.046Z,50.47
2022-11-19T15:57:04.497Z,61.17
2022-11-19T15:59:37.688Z,57.60
2022-11-19T16:02:16.246Z,58.33
2022-11-19T16:04:45.889Z,59.10
2022-11-19T16:07:14.200Z,63.58
2022-11-19T16:09:42.332Z,67.28
2022-11-19T16:12:39.245Z,66.72
2022-11-19T16:15:38.773Z,64.53
2022-11-19T16:18:14.688Z,67.00
2022-11-19T16:20:47.610Z,63.70
2022-11-19T16:23:19.396Z,60.58
2022-11-19T16:25:48.386Z,60.97
2022-11-19T16:28:19.630Z,63.67
2022-11-19T16:30:51.486Z,64.45
2022-11-19T16:33:22.086Z,65.93
2022-11-19T16:35:53.839Z,63.80
2022-11-19T16:38:28.384Z,67.93
2022-11-19T16:41:15.138Z,73.50
2022-11-19T16:43:48.829Z,72.22
2022-11-19T16:46:21.456Z,76.47
2022-11-19T16:48:58.864Z,105.78
2022-11-19T16:51:40.339Z,114.55
2022-11-19T16:54:10.915Z,120.30
2022-11-19T16:56:43.293Z,126.97
2022-11-19T16:59:20.378Z,132.80
2022-11-19T17:01:54.598Z,158.43
2022-11-19T17:04:25.829Z,130.07
2022-11-19T17:06:56.121Z,156.80
2022-11-19T17:09:41.571Z,135.98
2022-11-19T17:12:27.581Z,131.93
